Time;durP1;ratioP1;P1;durP2;ratioP2;P2;SDS_P1;SDS_P2;PMS_P1;PMS_P2;Temp;Humidity;BMP_temperature;BMP_pressure;BME280_temperature;BME280_humidity;BME280_pressure;Samples;Min_cycle;Max_cycle;Signal;HPM_P1;HPM_P2
2023/11/13 00:00:46;;;;;;;25.70;16.90;;;;;;;6.01;100.00;99953.70;105536;1260;98439;-77
2023/11/13 00:03:44;;;;;;;26.30;16.90;;;;;;;6.01;100.00;99951.83;105525;1259;102539;-77
2023/11/13 00:06:29;;;;;;;27.00;15.60;;;;;;;6.00;100.00;99957.57;105418;1254;100425;-76
2023/11/13 00:09:15;;;;;;;24.00;15.80;;;;;;;5.97;100.00;99961.28;105446;1253;99251;-76
2023/11/13 00:12:01;;;;;;;25.10;16.90;;;;;;;5.93;100.00;99961.90;105592;1254;97960;-77
2023/11/13 00:14:47;;;;;;;26.40;14.90;;;;;;;5.90;100.00;99964.23;105515;1259;99564;-77
2023/11/13 00:17:32;;;;;;;23.20;14.60;;;;;;;5.87;100.00;99959.27;105580;1259;102484;-76
2023/11/13 00:20:18;;;;;;;21.90;14.20;;;;;;;5.84;100.00;99960.45;105603;1254;100843;-77
2023/11/13 00:23:06;;;;;;;23.90;15.30;;;;;;;5.81;100.00;99960.17;105608;1259;98859;-76
2023/11/13 00:25:51;;;;;;;21.00;13.60;;;;;;;5.81;100.00;99964.70;105597;1267;99263;-77
2023/11/13 00:28:37;;;;;;;25.20;14.60;;;;;;;5.79;100.00;99967.53;105615;1259;97869;-77
2023/11/13 00:31:23;;;;;;;23.20;14.30;;;;;;;5.77;100.00;99972.89;105466;1259;101369;-76
2023/11/13 00:34:08;;;;;;;18.10;13.00;;;;;;;5.77;100.00;99975.02;105449;1254;99130;-76
2023/11/13 00:36:54;;;;;;;20.40;13.50;;;;;;;5.76;100.00;99974.11;105801;1259;98836;-76
2023/11/13 00:39:40;;;;;;;21.80;12.60;;;;;;;5.75;100.00;99978.43;105417;1260;98044;-76
2023/11/13 00:42:26;;;;;;;20.10;12.60;;;;;;;5.76;100.00;99985.98;105620;1260;98468;-76
2023/11/13 00:45:11;;;;;;;20.80;13.10;;;;;;;5.77;100.00;99984.44;105641;1258;101328;-77
2023/11/13 00:47:57;;;;;;;19.00;12.70;;;;;;;5.78;100.00;99981.33;105583;1259;99783;-76
2023/11/13 00:50:42;;;;;;;17.90;12.00;;;;;;;5.79;100.00;99985.92;105768;1257;98831;-76
2023/11/13 00:53:35;;;;;;;20.30;15.00;;;;;;;5.79;100.00;99990.90;105686;1255;99227;-76
2023/11/13 00:56:21;;;;;;;22.50;15.30;;;;;;;5.77;100.00;99990.42;105577;1260;97855;-77
2023/11/13 00:59:07;;;;;;;18.00;12.90;;;;;;;5.76;100.00;99996.04;105678;1258;101380;-76
2023/11/13 01:01:52;;;;;;;21.10;13.20;;;;;;;5.76;100.00;99997.17;105632;1258;100159;-76
2023/11/13 01:04:39;;;;;;;17.80;11.50;;;;;;;5.77;100.00;99997.61;105366;1260;98950;-76
2023/11/13 01:07:26;;;;;;;15.50;10.80;;;;;;;5.78;100.00;100000.31;105439;1259;97916;-76
2023/11/13 01:10:11;;;;;;;16.80;11.40;;;;;;;5.78;100.00;100001.84;105430;1259;98492;-77
2023/11/13 01:12:57;;;;;;;14.40;10.50;;;;;;;5.79;100.00;99999.58;105674;1254;102244;-76
2023/11/13 01:15:43;;;;;;;13.80;10.00;;;;;;;5.79;100.00;100004.40;105670;1258;100697;-76
2023/11/13 01:18:28;;;;;;;16.00;10.40;;;;;;;5.78;100.00;100002.02;105477;1260;98949;-76
2023/11/13 01:21:14;;;;;;;12.80;9.50;;;;;;;5.79;100.00;100001.54;105453;1267;97977;-77
2023/11/13 01:24:00;;;;;;;15.70;10.20;;;;;;;5.79;100.00;99999.09;105391;1269;99551;-76
2023/11/13 01:26:46;;;;;;;16.10;10.30;;;;;;;5.81;100.00;100001.57;105505;1267;102588;-76
2023/11/13 01:29:32;;;;;;;18.50;11.30;;;;;;;5.82;100.00;100003.55;105409;1262;101283;-76
2023/11/13 01:32:18;;;;;;;17.20;12.00;;;;;;;5.84;100.00;100003.34;105498;1269;99024;-76
2023/11/13 01:35:05;;;;;;;14.50;10.10;;;;;;;5.85;100.00;100000.70;105711;1260;97985;-77
2023/11/13 01:37:50;;;;;;;15.80;11.20;;;;;;;5.85;100.00;99999.86;105757;1256;97947;-76
2023/11/13 01:40:41;;;;;;;14.90;10.70;;;;;;;5.86;100.00;99998.36;105599;1259;101449;-76
2023/11/13 01:43:27;;;;;;;16.00;10.90;;;;;;;5.86;100.00;99994.38;105624;1255;100285;-76
2023/11/13 01:46:13;;;;;;;15.10;10.90;;;;;;;5.87;100.00;99990.05;105595;1260;99694;-77
2023/11/13 01:49:00;;;;;;;15.10;11.20;;;;;;;5.88;100.00;99990.25;105600;1259;97957;-76
2023/11/13 01:51:48;;;;;;;15.00;11.20;;;;;;;5.87;100.00;99990.79;105623;1259;99522;-76
2023/11/13 01:54:34;;;;;;;15.10;11.10;;;;;;;5.88;100.00;99989.63;105608;1259;102697;-76
2023/11/13 01:57:19;;;;;;;15.80;11.30;;;;;;;5.89;100.00;99992.02;105455;1260;99139;-76
2023/11/13 02:00:07;;;;;;;16.20;11.00;;;;;;;5.90;100.00;99992.60;105383;1254;98415;-76
2023/11/13 02:02:58;;;;;;;14.40;10.50;;;;;;;5.89;100.00;99994.77;105594;1257;98447;-77
2023/11/13 02:05:45;;;;;;;16.00;11.60;;;;;;;5.90;100.00;99993.30;105591;1259;99529;-76
2023/11/13 02:08:30;;;;;;;14.00;11.00;;;;;;;5.90;100.00;99991.60;105475;1257;101491;-76
2023/11/13 02:11:16;;;;;;;16.90;11.90;;;;;;;5.91;100.00;99993.45;105587;1254;99194;-77
2023/11/13 02:14:02;;;;;;;17.10;11.20;;;;;;;5.91;100.00;99991.77;105421;1260;98583;-77
2023/11/13 02:16:47;;;;;;;18.80;12.50;;;;;;;5.92;100.00;99994.05;105497;1258;97962;-76
2023/11/13 02:19:33;;;;;;;15.50;11.60;;;;;;;5.91;100.00;99987.98;105580;1257;97980;-76
2023/11/13 02:22:18;;;;;;;15.20;10.20;;;;;;;5.90;100.00;99987.62;105638;1266;101335;-78
2023/11/13 02:25:08;;;;;;;14.00;10.00;;;;;;;5.89;100.00;99986.54;105604;1257;99083;-77
2023/11/13 02:27:57;;;;;;;14.00;10.60;;;;;;;5.88;100.00;99988.36;105521;1254;97893;-76
2023/11/13 02:30:43;;;;;;;12.60;9.20;;;;;;;5.86;100.00;99989.10;105685;1260;98046;-78
2023/11/13 02:33:28;;;;;;;10.30;8.10;;;;;;;5.85;100.00;99991.16;105688;1258;97864;-77
2023/11/13 02:36:14;;;;;;;11.80;8.00;;;;;;;5.84;100.00;99995.34;105704;1257;102651;-75
2023/11/13 02:39:00;;;;;;;12.00;8.60;;;;;;;5.83;100.00;99998.09;105630;1258;99059;-76
2023/11/13 02:41:47;;;;;;;9.90;7.10;;;;;;;5.84;100.00;100004.34;105614;1257;98726;-76
2023/11/13 02:44:33;;;;;;;9.80;6.70;;;;;;;5.85;100.00;100004.68;105668;1259;97950;-76
2023/11/13 02:47:19;;;;;;;9.70;7.80;;;;;;;5.84;100.00;100006.13;105537;1260;98887;-77
2023/11/13 02:50:07;;;;;;;11.40;8.60;;;;;;;5.87;100.00;100001.62;105591;1267;102558;-76
2023/11/13 02:52:52;;;;;;;6.00;5.30;;;;;;;5.88;100.00;100002.17;105912;1260;100115;-76
2023/11/13 02:55:38;;;;;;;6.00;5.00;;;;;;;5.87;100.00;100000.29;105638;1267;98523;-77
2023/11/13 02:58:23;;;;;;;5.50;4.70;;;;;;;5.88;100.00;100003.54;105642;1254;97858;-78
2023/11/13 03:01:09;;;;;;;5.60;4.30;;;;;;;5.90;100.00;100003.92;105929;1257;98463;-77
2023/11/13 03:03:54;;;;;;;6.10;4.40;;;;;;;5.91;100.00;100002.37;105816;1254;101339;-77
2023/11/13 03:06:41;;;;;;;9.20;4.40;;;;;;;5.92;100.00;100002.10;105614;1259;100795;-75
2023/11/13 03:09:27;;;;;;;6.10;4.30;;;;;;;5.92;100.00;100003.33;105633;1260;98072;-76
2023/11/13 03:12:13;;;;;;;8.40;4.00;;;;;;;5.91;100.00;100006.26;105621;1260;98961;-76
2023/11/13 03:14:58;;;;;;;5.20;3.80;;;;;;;5.91;100.00;100007.85;105678;1254;98201;-76
2023/11/13 03:17:44;;;;;;;4.60;3.70;;;;;;;5.92;100.00;100012.53;105640;1258;102633;-76
2023/11/13 03:20:29;;;;;;;4.40;3.30;;;;;;;5.92;100.00;100012.89;105653;1254;99108;-76
2023/11/13 03:23:15;;;;;;;4.00;3.50;;;;;;;5.92;100.00;100008.61;105562;1261;98715;-77
2023/11/13 03:26:03;;;;;;;5.50;3.70;;;;;;;5.91;100.00;100004.70;105499;1260;97947;-77
2023/11/13 03:28:49;;;;;;;4.60;3.40;;;;;;;5.90;100.00;100007.25;105544;1257;98471;-76
2023/11/13 03:31:35;;;;;;;4.60;3.50;;;;;;;5.90;100.00;100005.45;105436;1260;101430;-76
2023/11/13 03:34:21;;;;;;;3.70;3.30;;;;;;;5.88;100.00;100003.55;105572;1257;99275;-77
2023/11/13 03:37:06;;;;;;;3.80;3.50;;;;;;;5.87;100.00;100000.92;105415;1258;97961;-77
2023/11/13 03:39:52;;;;;;;6.10;3.90;;;;;;;5.86;100.00;100002.26;105479;1257;98069;-77
2023/11/13 03:42:38;;;;;;;4.20;3.80;;;;;;;5.84;100.00;100004.02;105577;1254;98473;-76
2023/11/13 03:45:24;;;;;;;4.60;4.10;;;;;;;5.84;100.00;99999.46;105547;1259;102712;-77
2023/11/13 03:48:10;;;;;;;4.80;3.50;;;;;;;5.83;100.00;99999.85;105571;1260;100324;-76
2023/11/13 03:50:55;;;;;;;4.90;3.90;;;;;;;5.83;100.00;100003.27;105620;1260;98049;-76
2023/11/13 03:53:41;;;;;;;8.00;4.80;;;;;;;5.83;100.00;99999.37;105566;1254;98482;-76
2023/11/13 03:56:27;;;;;;;7.20;5.10;;;;;;;5.83;100.00;100001.97;105599;1254;98524;-76
2023/11/13 03:59:13;;;;;;;8.30;6.30;;;;;;;5.83;100.00;100002.36;105535;1257;102657;-76
2023/11/13 04:02:00;;;;;;;10.60;7.30;;;;;;;5.81;100.00;100000.94;105505;1255;99820;-76
2023/11/13 04:04:46;;;;;;;9.20;7.50;;;;;;;5.81;100.00;100003.63;105533;1257;97943;-76
2023/11/13 04:07:31;;;;;;;11.10;8.60;;;;;;;5.81;100.00;100004.69;105518;1254;97883;-76
2023/11/13 04:10:17;;;;;;;11.70;8.20;;;;;;;5.82;100.00;100005.86;105575;1260;98408;-76
2023/11/13 04:13:03;;;;;;;13.80;9.80;;;;;;;5.83;100.00;100005.59;105651;1255;102575;-76
2023/11/13 04:15:48;;;;;;;15.10;9.80;;;;;;;5.84;100.00;100006.36;105592;1254;99122;-75
2023/11/13 04:18:34;;;;;;;15.80;10.60;;;;;;;5.84;100.00;100004.02;105583;1254;99038;-76
2023/11/13 04:21:19;;;;;;;14.10;10.70;;;;;;;5.86;100.00;100004.58;105720;1254;98040;-76
2023/11/13 04:24:06;;;;;;;16.20;11.20;;;;;;;5.86;100.00;100005.00;105527;1257;98475;-76
2023/11/13 04:26:51;;;;;;;19.10;13.50;;;;;;;5.87;100.00;100003.54;105565;1254;101403;-77
2023/11/13 04:29:36;;;;;;;22.40;14.60;;;;;;;5.87;100.00;100005.88;105744;1257;99124;-78
2023/11/13 04:32:23;;;;;;;21.20;14.80;;;;;;;5.88;100.00;100006.30;105441;1257;98861;-77
2023/11/13 04:35:09;;;;;;;20.80;14.50;;;;;;;5.88;100.00;100003.91;105688;1259;97947;-76
2023/11/13 04:37:54;;;;;;;19.50;14.40;;;;;;;5.88;100.00;100002.02;105552;1257;98478;-76
2023/11/13 04:40:40;;;;;;;21.70;14.50;;;;;;;5.86;100.00;100004.10;105508;1267;101334;-77
2023/11/13 04:43:26;;;;;;;21.00;14.90;;;;;;;5.87;100.00;100002.47;105624;1257;99873;-76
2023/11/13 04:46:12;;;;;;;22.70;15.70;;;;;;;5.87;100.00;100002.31;105500;1257;98310;-76
2023/11/13 04:48:58;;;;;;;23.70;15.20;;;;;;;5.86;100.00;99999.32;105696;1254;97929;-76
2023/11/13 04:51:44;;;;;;;22.40;15.70;;;;;;;5.86;100.00;99996.54;105700;1257;97905;-76
2023/11/13 04:54:29;;;;;;;24.80;16.50;;;;;;;5.86;100.00;99990.29;105525;1254;101381;-75
2023/11/13 04:57:15;;;;;;;24.30;16.70;;;;;;;5.85;100.00;99985.13;105532;1253;99114;-76
2023/11/13 05:00:01;;;;;;;25.10;16.80;;;;;;;5.83;100.00;99991.07;105564;1254;97955;-76
2023/11/13 05:02:47;;;;;;;24.50;16.70;;;;;;;5.83;100.00;99994.77;105563;1254;97960;-77
2023/11/13 05:05:36;;;;;;;24.10;16.40;;;;;;;5.82;100.00;99997.64;105565;1257;98473;-77
2023/11/13 05:08:21;;;;;;;24.80;16.30;;;;;;;5.81;100.00;99993.75;105578;1257;102447;-76
2023/11/13 05:11:08;;;;;;;23.00;15.60;;;;;;;5.78;100.00;99994.73;105430;1259;100589;-76
2023/11/13 05:13:53;;;;;;;25.70;16.30;;;;;;;5.77;100.00;99993.61;105713;1254;99005;-77
2023/11/13 05:16:39;;;;;;;24.90;16.30;;;;;;;5.75;100.00;99998.13;105571;1254;97930;-76
2023/11/13 05:19:25;;;;;;;24.20;16.80;;;;;;;5.74;100.00;99992.75;105411;1254;98407;-75
2023/11/13 05:22:10;;;;;;;27.90;17.30;;;;;;;5.73;100.00;99988.92;105546;1257;101502;-76
2023/11/13 05:24:56;;;;;;;26.30;17.80;;;;;;;5.72;100.00;99994.75;105445;1257;100115;-76
2023/11/13 05:27:41;;;;;;;23.60;16.90;;;;;;;5.73;100.00;100001.60;105439;1257;99185;-76
2023/11/13 05:30:27;;;;;;;30.00;18.30;;;;;;;5.72;100.00;100005.02;105533;1254;99205;-76
2023/11/13 05:33:13;;;;;;;24.10;16.00;;;;;;;5.72;100.00;100008.77;105515;1256;99439;-77
2023/11/13 05:35:58;;;;;;;22.40;15.70;;;;;;;5.73;100.00;100012.39;105505;1254;101335;-77
2023/11/13 05:38:44;;;;;;;24.60;16.60;;;;;;;5.74;100.00;100015.11;105449;1259;99060;-77
2023/11/13 05:41:30;;;;;;;23.80;15.90;;;;;;;5.75;100.00;100014.10;105569;1257;98347;-77
2023/11/13 05:44:16;;;;;;;24.90;16.30;;;;;;;5.76;100.00;100016.44;105585;1255;99348;-77
2023/11/13 05:47:04;;;;;;;25.50;17.10;;;;;;;5.77;100.00;100020.55;105512;1254;97963;-76
2023/11/13 05:49:50;;;;;;;24.00;15.50;;;;;;;5.76;100.00;100021.71;105538;1254;101401;-76
2023/11/13 05:52:36;;;;;;;21.10;15.30;;;;;;;5.76;100.00;100024.80;105530;1256;99342;-76
2023/11/13 05:55:25;;;;;;;24.20;16.30;;;;;;;5.75;100.00;100024.31;105513;1257;98977;-76
2023/11/13 05:58:11;;;;;;;22.60;15.00;;;;;;;5.75;100.00;100028.72;105498;1254;97891;-76
2023/11/13 06:00:57;;;;;;;23.80;16.00;;;;;;;5.75;100.00;100033.54;105440;1257;97937;-76
2023/11/13 06:03:43;;;;;;;25.90;15.70;;;;;;;5.75;100.00;100035.54;105606;1254;102736;-77
2023/11/13 06:06:28;;;;;;;24.70;15.80;;;;;;;5.74;100.00;100033.34;105565;1257;99295;-75
2023/11/13 06:09:15;;;;;;;24.70;16.90;;;;;;;5.74;100.00;100038.43;105553;1254;99078;-75
2023/11/13 06:12:01;;;;;;;23.50;16.30;;;;;;;5.76;100.00;100047.98;105444;1257;97963;-75
2023/11/13 06:14:47;;;;;;;23.50;16.30;;;;;;;5.77;100.00;100049.31;105461;1254;98373;-76
2023/11/13 06:17:32;;;;;;;22.00;14.70;;;;;;;5.79;100.00;100052.60;105412;1257;101342;-76
2023/11/13 06:20:19;;;;;;;26.70;15.40;;;;;;;5.80;100.00;100054.99;105402;1254;100815;-76
2023/11/13 06:23:05;;;;;;;22.20;14.60;;;;;;;5.80;100.00;100056.85;105588;1254;97988;-75
2023/11/13 06:25:50;;;;;;;22.00;14.40;;;;;;;5.82;100.00;100057.05;105573;1253;97981;-77
2023/11/13 06:28:38;;;;;;;22.10;14.00;;;;;;;5.82;100.00;100060.92;105571;1254;98324;-77
2023/11/13 06:31:24;;;;;;;20.30;13.60;;;;;;;5.83;100.00;100059.77;105552;1253;102401;-77
2023/11/13 06:34:11;;;;;;;23.50;14.40;;;;;;;5.84;100.00;100063.88;105517;1253;100159;-77
2023/11/13 06:36:56;;;;;;;20.20;14.60;;;;;;;5.86;100.00;100066.67;105628;1254;98084;-78
2023/11/13 06:39:44;;;;;;;23.90;15.90;;;;;;;5.88;100.00;100069.90;105645;1256;98035;-78
2023/11/13 06:42:30;;;;;;;19.60;13.20;;;;;;;5.89;100.00;100069.80;105492;1257;98455;-78
2023/11/13 06:45:16;;;;;;;23.00;14.40;;;;;;;5.88;100.00;100070.88;105654;1254;101369;-78
2023/11/13 06:48:02;;;;;;;21.10;13.60;;;;;;;5.88;100.00;100068.21;105649;1253;99278;-77
2023/11/13 06:50:48;;;;;;;19.60;14.40;;;;;;;5.90;100.00;100072.27;105502;1254;98525;-76
2023/11/13 06:53:33;;;;;;;21.10;14.60;;;;;;;5.93;100.00;100074.63;105553;1253;97969;-76
2023/11/13 06:56:19;;;;;;;20.10;14.80;;;;;;;5.95;100.00;100077.41;105631;1257;99944;-75
2023/11/13 06:59:06;;;;;;;22.80;14.30;;;;;;;5.96;100.00;100081.04;105573;1257;103121;-76
2023/11/13 07:01:52;;;;;;;20.50;15.10;;;;;;;5.97;100.00;100085.19;105706;1254;100129;-76
2023/11/13 07:04:40;;;;;;;21.10;15.00;;;;;;;5.99;100.00;100084.59;105460;1257;98992;-75
2023/11/13 07:07:25;;;;;;;22.70;15.70;;;;;;;6.02;100.00;100085.52;105406;1253;99160;-77
2023/11/13 07:10:13;;;;;;;19.50;14.00;;;;;;;6.02;100.00;100085.28;105539;1254;99626;-77
2023/11/13 07:12:58;;;;;;;21.50;14.20;;;;;;;6.02;100.00;100085.97;105455;1256;102356;-76
2023/11/13 07:15:44;;;;;;;19.60;13.70;;;;;;;6.01;100.00;100086.84;105621;1253;100369;-77
2023/11/13 07:18:32;;;;;;;22.40;14.00;;;;;;;6.01;100.00;100086.94;105496;1254;98107;-76
2023/11/13 07:21:17;;;;;;;21.10;13.90;;;;;;;6.02;100.00;100085.81;105463;1253;97999;-76
2023/11/13 07:24:04;;;;;;;21.30;14.70;;;;;;;6.03;100.00;100087.62;105526;1254;97886;-76
2023/11/13 07:26:49;;;;;;;25.70;15.90;;;;;;;6.03;100.00;100093.15;105463;1253;102582;-76
2023/11/13 07:29:35;;;;;;;25.50;14.60;;;;;;;6.03;100.00;100093.30;105398;1253;101049;-76
2023/11/13 07:32:24;;;;;;;22.50;13.40;;;;;;;6.03;100.00;100087.07;105523;1257;97968;-76
2023/11/13 07:35:13;;;;;;;19.70;13.20;;;;;;;6.03;100.00;100085.53;105462;1254;97944;-76
2023/11/13 07:38:00;;;;;;;20.20;13.20;;;;;;;6.02;100.00;100082.91;105623;1253;98386;-76
2023/11/13 07:40:47;;;;;;;21.50;13.90;;;;;;;6.04;100.00;100082.42;105569;1257;101335;-76
2023/11/13 07:43:33;;;;;;;21.30;13.80;;;;;;;6.06;100.00;100083.61;105898;1254;99196;-80
2023/11/13 07:46:18;;;;;;;21.30;13.30;;;;;;;6.07;100.00;100090.17;106360;1256;97961;-80
2023/11/13 07:49:04;;;;;;;23.10;14.40;;;;;;;6.08;100.00;100091.50;106121;1259;97865;-81
2023/11/13 07:51:50;;;;;;;22.10;13.90;;;;;;;6.08;100.00;100094.00;106168;1257;98462;-80
2023/11/13 07:54:36;;;;;;;26.00;13.60;;;;;;;6.10;100.00;100096.42;106376;1253;102336;-83
2023/11/13 07:57:21;;;;;;;19.60;13.40;;;;;;;6.12;100.00;100099.98;106096;1253;100330;-84
2023/11/13 08:00:11;;;;;;;18.00;11.10;;;;;;;6.14;100.00;100100.54;106448;1258;97953;-81
2023/11/13 08:04:31;;;;;;;17.00;11.50;;;;;;;6.18;100.00;100104.54;103614;1289;635274;-80
2023/11/13 08:07:18;;;;;;;18.60;12.50;;;;;;;6.18;100.00;100108.13;106161;1268;95995;-80
2023/11/13 08:10:08;;;;;;;17.90;10.80;;;;;;;6.20;100.00;100109.19;105951;1266;97200;-80
2023/11/13 08:12:54;;;;;;;13.40;10.20;;;;;;;6.21;100.00;100112.41;106337;1254;99165;-79
2023/11/13 08:15:42;;;;;;;19.50;12.10;;;;;;;6.24;100.00;100117.88;106101;1254;99879;-79
2023/11/13 08:18:28;;;;;;;18.40;12.20;;;;;;;6.27;100.00;100114.73;106712;1251;106285;-80
2023/11/13 08:21:15;;;;;;;21.10;12.10;;;;;;;6.30;100.00;100114.82;106453;1256;95829;-76
2023/11/13 08:24:01;;;;;;;19.30;11.40;;;;;;;6.30;100.00;100114.65;105860;1251;95976;-76
2023/11/13 08:26:47;;;;;;;15.90;11.30;;;;;;;6.30;100.00;100115.52;105858;1250;98556;-76
2023/11/13 08:29:32;;;;;;;20.40;12.30;;;;;;;6.29;100.00;100114.48;105705;1256;99077;-77
2023/11/13 08:32:19;;;;;;;21.50;12.60;;;;;;;6.30;100.00;100114.48;105710;1256;97721;-76
2023/11/13 08:35:05;;;;;;;15.80;11.30;;;;;;;6.30;100.00;100119.77;105754;1255;95892;-76
2023/11/13 08:37:51;;;;;;;16.50;11.00;;;;;;;6.31;100.00;100116.27;106004;1253;96785;-77
2023/11/13 08:40:36;;;;;;;18.10;11.20;;;;;;;6.33;100.00;100115.33;105825;1251;99880;-77
2023/11/13 08:43:22;;;;;;;16.00;10.90;;;;;;;6.36;100.00;100112.30;105921;1256;99152;-82
2023/11/13 08:46:07;;;;;;;23.10;11.40;;;;;;;6.40;100.00;100110.59;106255;1256;99072;-81
2023/11/13 08:48:54;;;;;;;18.80;11.30;;;;;;;6.44;100.00;100109.34;106089;1256;95865;-83
2023/11/13 08:51:40;;;;;;;16.50;11.20;;;;;;;6.45;100.00;100113.40;106108;1255;95979;-83
2023/11/13 08:54:28;;;;;;;17.90;11.20;;;;;;;6.48;100.00;100116.85;106358;1260;99300;-81
2023/11/13 08:57:14;;;;;;;15.60;11.00;;;;;;;6.50;100.00;100114.80;106636;1256;100253;-81
2023/11/13 09:00:00;;;;;;;15.30;10.50;;;;;;;6.53;100.00;100115.14;106498;1256;97682;-81
2023/11/13 09:02:54;;;;;;;18.00;12.30;;;;;;;6.57;100.00;100117.19;106449;1262;97228;-84
2023/11/13 09:05:41;;;;;;;18.10;12.50;;;;;;;6.59;100.00;100117.86;106268;1256;95990;-82
2023/11/13 09:08:27;;;;;;;16.30;11.90;;;;;;;6.60;100.00;100123.34;106456;1255;98631;-81
2023/11/13 09:11:19;;;;;;;16.00;11.60;;;;;;;6.63;100.00;100126.92;106576;1259;99158;-80
2023/11/13 09:14:09;;;;;;;16.00;11.50;;;;;;;6.66;100.00;100129.11;106475;1256;97817;-80
2023/11/13 09:16:55;;;;;;;18.80;10.90;;;;;;;6.68;100.00;100130.39;106599;1256;97201;-81
2023/11/13 09:19:41;;;;;;;14.70;10.80;;;;;;;6.72;100.00;100129.45;106290;1261;96877;-82
2023/11/13 09:22:27;;;;;;;17.00;11.00;;;;;;;6.74;100.00;100126.91;106152;1262;99652;-82
2023/11/13 09:25:15;;;;;;;16.50;11.60;;;;;;;6.74;100.00;100124.44;106058;1259;100414;-79
2023/11/13 09:28:01;;;;;;;19.20;12.10;;;;;;;6.75;100.00;100122.55;105497;1256;98992;-79
2023/11/13 09:30:47;;;;;;;16.10;10.90;;;;;;;6.77;100.00;100121.46;105516;1257;95858;-77
2023/11/13 09:33:34;;;;;;;18.70;12.00;;;;;;;6.77;100.00;100122.52;105575;1261;96010;-78
2023/11/13 09:36:19;;;;;;;18.50;12.70;;;;;;;6.78;100.00;100120.27;105515;1262;99995;-77
2023/11/13 09:39:05;;;;;;;19.00;11.60;;;;;;;6.81;100.00;100119.91;105558;1267;100206;-78
2023/11/13 09:41:53;;;;;;;20.30;12.10;;;;;;;6.85;100.00;100114.48;105659;1257;97697;-79
2023/11/13 09:44:41;;;;;;;19.90;11.70;;;;;;;6.89;100.00;100116.55;106230;1257;95790;-82
2023/11/13 09:47:29;;;;;;;18.40;11.40;;;;;;;6.92;100.00;100118.80;106123;1256;95860;-83
2023/11/13 09:50:16;;;;;;;17.00;11.30;;;;;;;6.96;100.00;100121.88;106026;1262;98593;-78
2023/11/13 09:53:03;;;;;;;17.50;11.20;;;;;;;7.00;100.00;100125.17;105736;1262;99071;-82
2023/11/13 09:55:50;;;;;;;16.20;11.80;;;;;;;7.03;100.00;100126.58;105976;1257;97783;-81
2023/11/13 09:58:36;;;;;;;17.40;11.80;;;;;;;7.04;100.00;100129.17;106064;1262;96115;-80
2023/11/13 10:01:22;;;;;;;16.30;11.70;;;;;;;7.07;100.00;100131.53;106394;1256;95882;-80
2023/11/13 10:04:09;;;;;;;21.10;14.80;;;;;;;7.08;100.00;100134.63;106297;1257;100612;-82
2023/11/13 10:06:57;;;;;;;21.00;14.70;;;;;;;7.06;100.00;100131.56;106125;1256;100030;-84
2023/11/13 10:10:03;;;;;;;24.20;18.60;;;;;;;7.09;100.00;100130.34;106162;1257;99060;-83
2023/11/13 10:12:54;;;;;;;22.50;15.30;;;;;;;7.08;100.00;100129.55;106273;1259;95769;-81
2023/11/13 10:15:42;;;;;;;17.70;13.00;;;;;;;7.09;100.00;100133.98;106709;1259;94296;-79
2023/11/13 10:18:29;;;;;;;22.30;14.80;;;;;;;7.09;100.00;100136.11;105812;1262;99476;-86
2023/11/13 10:21:33;;;;;;;28.70;16.50;;;;;;;7.09;100.00;100137.84;106229;1256;99084;-83
2023/11/13 10:24:22;;;;;;;20.40;14.30;;;;;;;7.10;100.00;100136.50;106298;1262;99094;-84
2023/11/13 10:27:12;;;;;;;19.80;14.20;;;;;;;7.11;100.00;100137.63;106332;1257;95819;-86
2023/11/13 10:30:03;;;;;;;19.00;15.30;;;;;;;7.12;100.00;100138.96;106243;1256;95907;-86
2023/11/13 10:32:49;;;;;;;;;;;;;;;7.12;100.00;100136.72;106535;1256;98709;-86
2023/11/13 10:35:38;;;;;;;23.20;16.00;;;;;;;7.14;100.00;100134.63;106260;1256;99187;-85
2023/11/13 10:38:24;;;;;;;21.70;14.60;;;;;;;7.16;100.00;100131.46;106016;1261;98532;-83
2023/11/13 10:41:14;;;;;;;23.40;14.30;;;;;;;7.18;100.00;100128.23;106126;1256;95979;-86
2023/11/13 10:44:19;;;;;;;19.90;14.00;;;;;;;7.23;100.00;100123.27;106759;1259;95820;-87
2023/11/13 10:47:30;;;;;;;18.50;14.20;;;;;;;7.26;100.00;100120.05;106186;1262;98789;-86
2023/11/13 10:50:19;;;;;;;18.80;13.20;;;;;;;7.30;100.00;100120.83;105798;1256;99077;-84
2023/11/13 10:53:06;;;;;;;21.20;15.00;;;;;;;7.36;100.00;100117.85;106016;1258;98999;-82
2023/11/13 10:55:53;;;;;;;20.10;13.70;;;;;;;7.41;100.00;100112.66;106327;1261;95856;-85
2023/11/13 10:58:40;;;;;;;24.50;15.10;;;;;;;7.45;100.00;100109.98;106070;1262;95814;-84
2023/11/13 11:01:29;;;;;;;20.20;14.30;;;;;;;7.48;100.00;100110.73;106426;1260;100024;-85
2023/11/13 11:04:17;;;;;;;18.20;12.50;;;;;;;7.49;100.00;100110.60;106168;1261;99171;-86
2023/11/13 11:07:06;;;;;;;20.60;14.10;;;;;;;7.51;100.00;100109.95;106265;1261;97816;-86
2023/11/13 11:10:05;;;;;;;24.10;14.30;;;;;;;7.55;100.00;100105.77;106247;1257;95332;-86
2023/11/13 11:12:58;;;;;;;21.00;15.00;;;;;;;7.59;100.00;100103.51;106309;1257;95934;-83
2023/11/13 11:16:18;;;;;;;18.80;13.90;;;;;;;7.65;100.00;100099.73;106180;1256;99923;-83
2023/11/13 11:19:48;;;;;;;19.10;14.40;;;;;;;7.69;100.00;100094.61;106242;1257;99270;-84
2023/11/13 11:22:45;;;;;;;23.80;15.30;;;;;;;7.73;100.00;100091.39;106263;1262;97735;-86
2023/11/13 11:25:46;;;;;;;21.80;14.90;;;;;;;7.77;100.00;100094.83;106489;1256;95893;-80
2023/11/13 11:28:42;;;;;;;;;;;;;;;7.82;100.00;100094.58;106524;1259;95837;-80
2023/11/13 11:31:32;;;;;;;18.90;14.60;;;;;;;7.85;100.00;100091.55;106467;1255;99414;-79
2023/11/13 11:34:19;;;;;;;18.80;13.80;;;;;;;7.88;100.00;100091.71;106316;1257;99102;-79
2023/11/13 11:37:09;;;;;;;17.10;12.10;;;;;;;7.92;100.00;100090.05;106070;1259;97788;-78
2023/11/13 11:40:03;;;;;;;19.10;12.00;;;;;;;7.95;100.00;100089.08;105676;1260;96000;-78
2023/11/13 11:42:49;;;;;;;20.00;12.60;;;;;;;7.99;100.00;100088.64;105630;1257;95896;-77
2023/11/13 11:45:34;;;;;;;14.00;11.30;;;;;;;8.02;100.00;100085.70;105900;1259;100015;-79
2023/11/13 11:48:22;;;;;;;16.70;12.70;;;;;;;8.06;100.00;100083.17;105507;1259;99285;-78
2023/11/13 11:51:21;;;;;;;18.40;11.30;;;;;;;8.09;100.00;100083.20;105313;1256;99390;-77
2023/11/13 11:54:11;;;;;;;16.10;12.50;;;;;;;8.09;99.97;100082.20;105621;1259;96850;-77
2023/11/13 11:57:15;;;;;;;17.00;11.70;;;;;;;8.10;99.92;100077.71;106908;1256;95627;-93
2023/11/13 12:00:20;;;;;;;17.30;12.30;;;;;;;8.08;99.56;100076.67;105828;1260;100009;-80
2023/11/13 12:03:07;;;;;;;16.50;12.20;;;;;;;8.06;99.22;100069.58;106180;1257;100884;-80
2023/11/13 12:05:54;;;;;;;17.30;12.30;;;;;;;8.06;99.40;100065.23;106005;1257;98485;-81
2023/11/13 12:08:41;;;;;;;13.70;11.60;;;;;;;8.08;99.30;100063.88;106250;1260;95793;-80
2023/11/13 12:11:27;;;;;;;16.20;11.00;;;;;;;8.10;98.89;100063.25;106602;1257;96033;-80
2023/11/13 12:14:14;;;;;;;16.20;11.20;;;;;;;8.13;98.12;100057.61;106877;1257;98830;-77
2023/11/13 12:16:59;;;;;;;12.70;9.80;;;;;;;8.16;98.07;100052.38;106371;1269;99145;-85
2023/11/13 12:19:49;;;;;;;15.00;11.30;;;;;;;8.20;97.72;100049.39;105996;1256;97893;-84
2023/11/13 12:22:35;;;;;;;14.50;11.50;;;;;;;8.25;97.78;100045.79;106329;1256;96315;-79
2023/11/13 12:25:21;;;;;;;13.90;11.20;;;;;;;8.31;97.70;100042.79;107253;1257;95865;-81
2023/11/13 12:28:08;;;;;;;15.10;11.10;;;;;;;8.35;97.64;100045.08;106507;1258;98587;-80
2023/11/13 12:30:54;;;;;;;15.40;10.90;;;;;;;8.42;97.77;100046.43;106452;1257;100382;-85
2023/11/13 12:33:40;;;;;;;14.80;11.80;;;;;;;8.48;97.99;100040.60;106228;1260;98512;-85
2023/11/13 12:36:25;;;;;;;16.50;12.80;;;;;;;8.57;98.24;100041.67;106111;1256;95983;-83